GGA1730 KMCO-TNCA
Flight info
| Callsign | GGA1730 |
|---|---|
| Flight time | N/A |
| Altitude | 35000 |
| Route | DDANY3 VALKA TRV ZBV B760 BORDO UMIMI UL210 GELOG UL795 DIBOK |
| Aircraft | A321/M-SDE3FGHIRWY/LB1 |
Departure
| Time | N/A |
|---|---|
| Airport | Orlando International Airport (KMCO) |
Arrival
| Time | 2026-05-05 19:04 |
|---|---|
| Airport | Queen Beatrix International Airport (TNCA) |
| Time | Latitude | Longitude | Altitude | Speed | Heading |
|---|---|---|---|---|---|
| 2026-05-05 17:49 | 19.40423 | -75.66923 | 35010 ft | 496 kts | 152° |
| 2026-05-05 17:50 | 19.37390 | -75.65147 | 35009 ft | 496 kts | 152° |
| 2026-05-05 17:50 | 19.31345 | -75.61609 | 35008 ft | 495 kts | 152° |
| 2026-05-05 17:51 | 19.25329 | -75.58092 | 35011 ft | 495 kts | 152° |
| 2026-05-05 17:51 | 19.19299 | -75.54573 | 35007 ft | 495 kts | 152° |
| 2026-05-05 17:52 | 19.13277 | -75.51057 | 35004 ft | 493 kts | 152° |
| 2026-05-05 17:52 | 19.07283 | -75.47560 | 35001 ft | 492 kts | 152° |
| 2026-05-05 17:53 | 19.01256 | -75.44049 | 35006 ft | 491 kts | 152° |
| 2026-05-05 17:53 | 18.95271 | -75.40564 | 35002 ft | 492 kts | 152° |
| 2026-05-05 17:54 | 18.89280 | -75.37078 | 35004 ft | 492 kts | 152° |
| 2026-05-05 17:54 | 18.83296 | -75.33598 | 35002 ft | 491 kts | 153° |
| 2026-05-05 17:55 | 18.77330 | -75.30131 | 35005 ft | 490 kts | 153° |
| 2026-05-05 17:55 | 18.71362 | -75.26668 | 35004 ft | 489 kts | 153° |
| 2026-05-05 17:56 | 18.65398 | -75.23207 | 35009 ft | 489 kts | 153° |
| 2026-05-05 17:56 | 18.59418 | -75.19740 | 35003 ft | 488 kts | 152° |
| 2026-05-05 17:57 | 18.53623 | -75.16087 | 35006 ft | 489 kts | 147° |
| 2026-05-05 17:57 | 18.47943 | -75.12073 | 35004 ft | 488 kts | 147° |
| 2026-05-05 17:58 | 18.42322 | -75.08079 | 35004 ft | 487 kts | 147° |
| 2026-05-05 17:58 | 18.36713 | -75.04105 | 35003 ft | 488 kts | 147° |
| 2026-05-05 17:59 | 18.31079 | -75.00120 | 35004 ft | 487 kts | 147° |
| 2026-05-05 17:59 | 18.25424 | -74.96126 | 35000 ft | 487 kts | 147° |
| 2026-05-05 18:00 | 18.19822 | -74.92173 | 34997 ft | 488 kts | 147° |
| 2026-05-05 18:00 | 18.14175 | -74.88191 | 34997 ft | 487 kts | 147° |
| 2026-05-05 18:01 | 18.08529 | -74.84215 | 34997 ft | 486 kts | 147° |
| 2026-05-05 18:01 | 18.02917 | -74.80263 | 35003 ft | 486 kts | 147° |
| 2026-05-05 18:02 | 17.97319 | -74.76324 | 35005 ft | 486 kts | 147° |
| 2026-05-05 18:02 | 17.91687 | -74.72362 | 35004 ft | 485 kts | 147° |
| 2026-05-05 18:03 | 17.86102 | -74.68438 | 35013 ft | 485 kts | 147° |
| 2026-05-05 18:03 | 17.80469 | -74.64484 | 35017 ft | 484 kts | 147° |
| 2026-05-05 18:04 | 17.74875 | -74.60561 | 35018 ft | 485 kts | 147° |
| 2026-05-05 18:04 | 17.69260 | -74.56628 | 35017 ft | 485 kts | 147° |
| 2026-05-05 18:05 | 17.63651 | -74.52700 | 35018 ft | 485 kts | 147° |
| 2026-05-05 18:05 | 17.58013 | -74.48755 | 35016 ft | 485 kts | 147° |
| 2026-05-05 18:06 | 17.52407 | -74.44835 | 35019 ft | 485 kts | 147° |
| 2026-05-05 18:06 | 17.46788 | -74.40910 | 35011 ft | 485 kts | 147° |
| 2026-05-05 18:07 | 17.41176 | -74.36993 | 35002 ft | 486 kts | 147° |
| 2026-05-05 18:07 | 17.35495 | -74.33028 | 34996 ft | 485 kts | 148° |
| 2026-05-05 18:08 | 17.29899 | -74.29127 | 34995 ft | 485 kts | 148° |
| 2026-05-05 18:08 | 17.24266 | -74.25204 | 34995 ft | 484 kts | 148° |
| 2026-05-05 18:09 | 17.18649 | -74.21293 | 34994 ft | 483 kts | 148° |
| 2026-05-05 18:09 | 17.13073 | -74.17414 | 34994 ft | 484 kts | 148° |
| 2026-05-05 18:10 | 17.07424 | -74.13488 | 34993 ft | 485 kts | 148° |
| 2026-05-05 18:10 | 17.01799 | -74.09580 | 34993 ft | 485 kts | 148° |
| 2026-05-05 18:11 | 16.96178 | -74.05680 | 34993 ft | 484 kts | 148° |
| 2026-05-05 18:11 | 16.90600 | -74.01813 | 34992 ft | 484 kts | 148° |
| 2026-05-05 18:12 | 16.84232 | -73.97400 | 34991 ft | 483 kts | 148° |
| 2026-05-05 18:12 | 16.78001 | -73.93085 | 34991 ft | 483 kts | 148° |
| 2026-05-05 18:13 | 16.71995 | -73.88930 | 34987 ft | 483 kts | 148° |
| 2026-05-05 18:13 | 16.65983 | -73.84771 | 34988 ft | 482 kts | 148° |
| 2026-05-05 18:14 | 16.59983 | -73.80625 | 34986 ft | 482 kts | 148° |
| 2026-05-05 18:14 | 16.53976 | -73.76476 | 34985 ft | 482 kts | 148° |
| 2026-05-05 18:15 | 16.47976 | -73.72334 | 34985 ft | 481 kts | 148° |
| 2026-05-05 18:15 | 16.41975 | -73.68195 | 34982 ft | 481 kts | 148° |
| 2026-05-05 18:16 | 16.36063 | -73.63902 | 34979 ft | 483 kts | 144° |
| 2026-05-05 18:16 | 16.30673 | -73.59041 | 34981 ft | 484 kts | 139° |
| 2026-05-05 18:17 | 16.25726 | -73.54321 | 34980 ft | 483 kts | 139° |
| 2026-05-05 18:17 | 16.20745 | -73.49576 | 34978 ft | 483 kts | 139° |
| 2026-05-05 18:18 | 16.15814 | -73.44892 | 34975 ft | 483 kts | 139° |
| 2026-05-05 18:18 | 16.10834 | -73.40170 | 34976 ft | 483 kts | 139° |
| 2026-05-05 18:19 | 16.05863 | -73.35458 | 34977 ft | 483 kts | 139° |
| 2026-05-05 18:19 | 16.00892 | -73.30750 | 34972 ft | 482 kts | 140° |
| 2026-05-05 18:20 | 15.95956 | -73.26080 | 34971 ft | 482 kts | 140° |
| 2026-05-05 18:20 | 15.90980 | -73.21375 | 34970 ft | 482 kts | 140° |
| 2026-05-05 18:21 | 15.86033 | -73.16702 | 34969 ft | 482 kts | 140° |
| 2026-05-05 18:21 | 15.81063 | -73.12009 | 34969 ft | 483 kts | 139° |
| 2026-05-05 18:22 | 15.76099 | -73.07326 | 34966 ft | 483 kts | 139° |
| 2026-05-05 18:22 | 15.71103 | -73.02615 | 34969 ft | 482 kts | 140° |
| 2026-05-05 18:23 | 15.66165 | -72.97961 | 34966 ft | 482 kts | 140° |
| 2026-05-05 18:23 | 15.61174 | -72.93263 | 34967 ft | 482 kts | 139° |
| 2026-05-05 18:24 | 15.56230 | -72.88611 | 34967 ft | 482 kts | 139° |
| 2026-05-05 18:24 | 15.51262 | -72.83939 | 34965 ft | 481 kts | 139° |
| 2026-05-05 18:25 | 15.46305 | -72.79280 | 34964 ft | 482 kts | 139° |
| 2026-05-05 18:25 | 15.41336 | -72.74614 | 34963 ft | 481 kts | 139° |
| 2026-05-05 18:26 | 15.36367 | -72.69952 | 34961 ft | 481 kts | 139° |
| 2026-05-05 18:26 | 15.31396 | -72.65289 | 34959 ft | 481 kts | 139° |
| 2026-05-05 18:27 | 15.26461 | -72.60665 | 34959 ft | 481 kts | 139° |
| 2026-05-05 18:27 | 15.21491 | -72.56010 | 34960 ft | 481 kts | 139° |
| 2026-05-05 18:28 | 15.14031 | -72.49030 | 34959 ft | 481 kts | 139° |
| 2026-05-05 18:28 | 15.09078 | -72.44400 | 34957 ft | 481 kts | 139° |
| 2026-05-05 18:29 | 15.04091 | -72.39738 | 34956 ft | 481 kts | 139° |
| 2026-05-05 18:29 | 14.99136 | -72.35113 | 34955 ft | 481 kts | 139° |
| 2026-05-05 18:30 | 14.94171 | -72.30478 | 34953 ft | 480 kts | 140° |
| 2026-05-05 18:30 | 14.89224 | -72.25866 | 34954 ft | 480 kts | 140° |
| 2026-05-05 18:31 | 14.84234 | -72.21217 | 34952 ft | 480 kts | 139° |
| 2026-05-05 18:31 | 14.79294 | -72.16616 | 34951 ft | 480 kts | 139° |
| 2026-05-05 18:32 | 14.74304 | -72.11969 | 34952 ft | 480 kts | 139° |
| 2026-05-05 18:32 | 14.69344 | -72.07355 | 34951 ft | 480 kts | 139° |
| 2026-05-05 18:33 | 14.64406 | -72.02766 | 34949 ft | 479 kts | 139° |
| 2026-05-05 18:33 | 14.59445 | -71.98158 | 34948 ft | 478 kts | 139° |
| 2026-05-05 18:34 | 14.54490 | -71.93557 | 34950 ft | 479 kts | 139° |
| 2026-05-05 18:34 | 14.49551 | -71.88975 | 34945 ft | 478 kts | 139° |
| 2026-05-05 18:35 | 14.44600 | -71.84385 | 34947 ft | 478 kts | 139° |
| 2026-05-05 18:35 | 14.39641 | -71.79790 | 34947 ft | 478 kts | 139° |
| 2026-05-05 18:36 | 14.34690 | -71.75204 | 34946 ft | 477 kts | 139° |
| 2026-05-05 18:36 | 14.29755 | -71.70637 | 34949 ft | 477 kts | 139° |
| 2026-05-05 18:37 | 14.24825 | -71.66076 | 34943 ft | 477 kts | 139° |
| 2026-05-05 18:37 | 14.19881 | -71.61505 | 34937 ft | 477 kts | 139° |
| 2026-05-05 18:38 | 14.14932 | -71.56935 | 34933 ft | 477 kts | 139° |
| 2026-05-05 18:38 | 14.09993 | -71.52376 | 34882 ft | 478 kts | 139° |
| 2026-05-05 18:39 | 14.07535 | -71.50107 | 34500 ft | 477 kts | 139° |
| 2026-05-05 18:39 | 14.05069 | -71.47833 | 33962 ft | 474 kts | 139° |
| 2026-05-05 18:39 | 14.02594 | -71.45551 | 33298 ft | 473 kts | 139° |
| 2026-05-05 18:39 | 14.00179 | -71.43325 | 32615 ft | 472 kts | 139° |
| 2026-05-05 18:40 | 13.97719 | -71.41058 | 31945 ft | 472 kts | 139° |
| 2026-05-05 18:40 | 13.95285 | -71.38817 | 31267 ft | 472 kts | 139° |
| 2026-05-05 18:40 | 13.92818 | -71.36546 | 30578 ft | 472 kts | 138° |
| 2026-05-05 18:40 | 13.90404 | -71.34324 | 29889 ft | 472 kts | 138° |
| 2026-05-05 18:41 | 13.87831 | -71.31955 | 29145 ft | 472 kts | 138° |
| 2026-05-05 18:41 | 13.85230 | -71.29562 | 28428 ft | 471 kts | 138° |
| 2026-05-05 18:41 | 13.82650 | -71.27186 | 27977 ft | 465 kts | 138° |
| 2026-05-05 18:41 | 13.80106 | -71.24845 | 27480 ft | 460 kts | 138° |
| 2026-05-05 18:42 | 13.77577 | -71.22517 | 26949 ft | 456 kts | 138° |
| 2026-05-05 18:42 | 13.75081 | -71.20223 | 26412 ft | 452 kts | 138° |
| 2026-05-05 18:42 | 13.72591 | -71.17934 | 25863 ft | 448 kts | 138° |
| 2026-05-05 18:42 | 13.70098 | -71.15642 | 25324 ft | 444 kts | 137° |
| 2026-05-05 18:43 | 13.67640 | -71.13385 | 24794 ft | 440 kts | 137° |
| 2026-05-05 18:43 | 13.65179 | -71.11126 | 24260 ft | 436 kts | 137° |
| 2026-05-05 18:43 | 13.62730 | -71.08878 | 23727 ft | 433 kts | 137° |
| 2026-05-05 18:43 | 13.60299 | -71.06647 | 23204 ft | 429 kts | 137° |
| 2026-05-05 18:44 | 13.57987 | -71.04526 | 22699 ft | 426 kts | 137° |
| 2026-05-05 18:44 | 13.55801 | -71.02521 | 22214 ft | 423 kts | 137° |
| 2026-05-05 18:44 | 13.53598 | -71.00500 | 21739 ft | 420 kts | 137° |
| 2026-05-05 18:44 | 13.51449 | -70.98528 | 21282 ft | 416 kts | 137° |
| 2026-05-05 18:45 | 13.49300 | -70.96558 | 20825 ft | 413 kts | 137° |
| 2026-05-05 18:45 | 13.47137 | -70.94575 | 20362 ft | 410 kts | 137° |
| 2026-05-05 18:45 | 13.45029 | -70.92644 | 19910 ft | 407 kts | 137° |
| 2026-05-05 18:45 | 13.42929 | -70.90720 | 19459 ft | 403 kts | 137° |
| 2026-05-05 18:46 | 13.40829 | -70.88798 | 19007 ft | 400 kts | 137° |
| 2026-05-05 18:46 | 13.38782 | -70.86925 | 18562 ft | 396 kts | 137° |
| 2026-05-05 18:46 | 13.36738 | -70.85054 | 18116 ft | 393 kts | 137° |
| 2026-05-05 18:46 | 13.34695 | -70.83185 | 17664 ft | 389 kts | 137° |
| 2026-05-05 18:47 | 13.32669 | -70.81332 | 17210 ft | 386 kts | 137° |
| 2026-05-05 18:47 | 13.30683 | -70.79517 | 16748 ft | 383 kts | 137° |
| 2026-05-05 18:47 | 13.28712 | -70.77715 | 16280 ft | 380 kts | 137° |
| 2026-05-05 18:47 | 13.26752 | -70.75923 | 15807 ft | 377 kts | 137° |
| 2026-05-05 18:48 | 13.24783 | -70.74123 | 15327 ft | 375 kts | 137° |
| 2026-05-05 18:48 | 13.22857 | -70.72364 | 14856 ft | 372 kts | 137° |
| 2026-05-05 18:48 | 13.20913 | -70.70586 | 14379 ft | 370 kts | 137° |
| 2026-05-05 18:48 | 13.19008 | -70.68848 | 13909 ft | 367 kts | 137° |
| 2026-05-05 18:49 | 13.17092 | -70.67097 | 13427 ft | 365 kts | 137° |
| 2026-05-05 18:49 | 13.15220 | -70.65387 | 12956 ft | 363 kts | 137° |
| 2026-05-05 18:49 | 13.13331 | -70.63660 | 12481 ft | 360 kts | 136° |
| 2026-05-05 18:49 | 13.11473 | -70.61964 | 12010 ft | 358 kts | 136° |
| 2026-05-05 18:50 | 13.09623 | -70.60274 | 11541 ft | 356 kts | 136° |
| 2026-05-05 18:50 | 13.07771 | -70.58584 | 11068 ft | 353 kts | 136° |
| 2026-05-05 18:50 | 13.05943 | -70.56917 | 10598 ft | 351 kts | 136° |
| 2026-05-05 18:50 | 13.04130 | -70.55263 | 10128 ft | 349 kts | 136° |
| 2026-05-05 18:51 | 13.02312 | -70.53607 | 9790 ft | 341 kts | 137° |
| 2026-05-05 18:51 | 13.00569 | -70.52028 | 9808 ft | 333 kts | 137° |
| 2026-05-05 18:51 | 12.98831 | -70.50452 | 9831 ft | 333 kts | 137° |
| 2026-05-05 18:51 | 12.97105 | -70.48885 | 9855 ft | 333 kts | 137° |
| 2026-05-05 18:52 | 12.95357 | -70.47298 | 9876 ft | 334 kts | 137° |
| 2026-05-05 18:52 | 12.93623 | -70.45725 | 9972 ft | 328 kts | 137° |
| 2026-05-05 18:52 | 12.91931 | -70.44190 | 9944 ft | 313 kts | 137° |
| 2026-05-05 18:52 | 12.90349 | -70.42756 | 9913 ft | 298 kts | 137° |
| 2026-05-05 18:53 | 12.88751 | -70.41305 | 9783 ft | 287 kts | 136° |
| 2026-05-05 18:53 | 12.87122 | -70.39826 | 9370 ft | 287 kts | 136° |
| 2026-05-05 18:53 | 12.85516 | -70.38367 | 9032 ft | 283 kts | 136° |
| 2026-05-05 18:53 | 12.84007 | -70.36997 | 8701 ft | 281 kts | 136° |
| 2026-05-05 18:54 | 12.82549 | -70.35674 | 8292 ft | 279 kts | 136° |
| 2026-05-05 18:54 | 12.81105 | -70.34364 | 7939 ft | 273 kts | 137° |
| 2026-05-05 18:54 | 12.79694 | -70.33085 | 7595 ft | 269 kts | 137° |
| 2026-05-05 18:54 | 12.78303 | -70.31823 | 7361 ft | 263 kts | 137° |
| 2026-05-05 18:55 | 12.76943 | -70.30590 | 7100 ft | 259 kts | 136° |
| 2026-05-05 18:55 | 12.75604 | -70.29376 | 6852 ft | 255 kts | 136° |
| 2026-05-05 18:55 | 12.74290 | -70.28185 | 6613 ft | 251 kts | 136° |
| 2026-05-05 18:55 | 12.72990 | -70.27005 | 6366 ft | 247 kts | 136° |
| 2026-05-05 18:56 | 12.71711 | -70.25846 | 6074 ft | 243 kts | 136° |
| 2026-05-05 18:56 | 12.70456 | -70.24710 | 5783 ft | 238 kts | 136° |
| 2026-05-05 18:56 | 12.69235 | -70.23605 | 5561 ft | 235 kts | 136° |
| 2026-05-05 18:56 | 12.68013 | -70.22498 | 5342 ft | 231 kts | 136° |
| 2026-05-05 18:57 | 12.66809 | -70.21408 | 5124 ft | 227 kts | 136° |
| 2026-05-05 18:57 | 12.65606 | -70.20382 | 4895 ft | 225 kts | 145° |
| 2026-05-05 18:57 | 12.64120 | -70.19866 | 4685 ft | 229 kts | 171° |
| 2026-05-05 18:57 | 12.62542 | -70.20028 | 4503 ft | 230 kts | 187° |
| 2026-05-05 18:58 | 12.60992 | -70.20415 | 4304 ft | 227 kts | 188° |
| 2026-05-05 18:58 | 12.59466 | -70.20807 | 4096 ft | 223 kts | 188° |
| 2026-05-05 18:58 | 12.57962 | -70.21190 | 3937 ft | 216 kts | 187° |
| 2026-05-05 18:58 | 12.56526 | -70.21307 | 3719 ft | 199 kts | 162° |
| 2026-05-05 18:59 | 12.55402 | -70.20635 | 3414 ft | 184 kts | 130° |
| 2026-05-05 18:59 | 12.54693 | -70.19572 | 3150 ft | 177 kts | 115° |
| 2026-05-05 18:59 | 12.54240 | -70.18424 | 2920 ft | 171 kts | 107° |
| 2026-05-05 18:59 | 12.53913 | -70.17292 | 2706 ft | 165 kts | 104° |
| 2026-05-05 19:00 | 12.53626 | -70.16152 | 2501 ft | 163 kts | 103° |
| 2026-05-05 19:00 | 12.53361 | -70.15053 | 2288 ft | 157 kts | 102° |
| 2026-05-05 19:00 | 12.53109 | -70.13995 | 2115 ft | 145 kts | 102° |
| 2026-05-05 19:00 | 12.52880 | -70.13036 | 1927 ft | 130 kts | 102° |
| 2026-05-05 19:01 | 12.52676 | -70.12183 | 1750 ft | 121 kts | 101° |
| 2026-05-05 19:01 | 12.52479 | -70.11353 | 1607 ft | 120 kts | 101° |
| 2026-05-05 19:01 | 12.52280 | -70.10510 | 1467 ft | 121 kts | 101° |
| 2026-05-05 19:01 | 12.52082 | -70.09678 | 1325 ft | 120 kts | 102° |
| 2026-05-05 19:02 | 12.51886 | -70.08858 | 1167 ft | 119 kts | 102° |
| 2026-05-05 19:02 | 12.51687 | -70.08020 | 1023 ft | 121 kts | 102° |
| 2026-05-05 19:02 | 12.51490 | -70.07194 | 858 ft | 120 kts | 102° |
| 2026-05-05 19:02 | 12.51296 | -70.06360 | 698 ft | 122 kts | 102° |
| 2026-05-05 19:03 | 12.51092 | -70.05505 | 575 ft | 121 kts | 104° |
| 2026-05-05 19:03 | 12.50884 | -70.04668 | 406 ft | 120 kts | 104° |
| 2026-05-05 19:03 | 12.50685 | -70.03822 | 228 ft | 124 kts | 104° |
| 2026-05-05 19:03 | 12.50484 | -70.02972 | 77 ft | 123 kts | 105° |
| 2026-05-05 19:04 | 12.50287 | -70.02166 | 29 ft | 99 kts | 100° |
| 2026-05-05 19:04 | 12.50193 | -70.01750 | 37 ft | 38 kts | 104° |
| 2026-05-05 19:04 | 12.50130 | -70.01517 | 45 ft | 30 kts | 105° |
| 2026-05-05 19:04 | 12.50091 | -70.01334 | 52 ft | 23 kts | 102° |
| 2026-05-05 19:05 | 12.50056 | -70.01192 | 56 ft | 18 kts | 105° |
| 2026-05-05 19:05 | 12.50027 | -70.01077 | 60 ft | 15 kts | 98° |
| 2026-05-05 19:05 | 12.50051 | -70.01013 | 63 ft | 7 kts | 9° |
| 2026-05-05 19:05 | 12.50102 | -70.01004 | 65 ft | 9 kts | 13° |
| 2026-05-05 19:06 | 12.50157 | -70.00988 | 68 ft | 6 kts | 19° |
| 2026-05-05 19:06 | 12.50196 | -70.00972 | 69 ft | 5 kts | 24° |
| 2026-05-05 19:06 | 12.50221 | -70.00942 | 71 ft | 7 kts | 77° |
| 2026-05-05 19:06 | 12.50228 | -70.00895 | 72 ft | 5 kts | 66° |
| 2026-05-05 19:07 | 12.50250 | -70.00882 | 73 ft | 2 kts | 4° |
| 2026-05-05 19:07 | 12.50267 | -70.00880 | 73 ft | 5 kts | 7° |
| 2026-05-05 19:07 | 12.50295 | -70.00874 | 74 ft | 0 kts | 13° |
| 2026-05-05 19:07 | 12.50297 | -70.00873 | 74 ft | 0 kts | 14° |
| 2026-05-05 19:08 | 12.50295 | -70.00874 | 74 ft | 0 kts | 14° |